createdAt,value
2022-12-16T00:01:23.010Z,-7.34
2022-12-16T00:03:49.718Z,-7.38
2022-12-16T00:06:13.737Z,-7.45
2022-12-16T00:08:40.000Z,-7.35
2022-12-16T00:11:02.396Z,-7.35
2022-12-16T00:13:23.885Z,-7.57
2022-12-16T00:15:46.732Z,-7.42
2022-12-16T00:18:08.239Z,-7.43
2022-12-16T00:20:29.946Z,-7.47
2022-12-16T00:22:51.701Z,-7.47
2022-12-16T00:25:13.160Z,-7.63
2022-12-16T00:27:34.652Z,-7.54
2022-12-16T00:29:56.114Z,-7.51
2022-12-16T00:32:17.608Z,-7.49
2022-12-16T00:34:39.294Z,-7.39
2022-12-16T00:37:00.840Z,-7.40
2022-12-16T00:39:22.303Z,-7.34
2022-12-16T00:41:43.808Z,-7.38
2022-12-16T00:44:05.583Z,-7.58
2022-12-16T00:46:27.126Z,-7.62
2022-12-16T00:48:48.667Z,-7.61
2022-12-16T00:51:10.162Z,-7.61
2022-12-16T00:53:32.165Z,-7.64
2022-12-16T00:56:08.526Z,-7.71
2022-12-16T00:58:30.145Z,-7.66
2022-12-16T01:00:51.794Z,-7.86
2022-12-16T01:03:19.463Z,-7.81
2022-12-16T01:05:42.891Z,-7.97
2022-12-16T01:08:04.612Z,-7.86
2022-12-16T01:10:26.150Z,-7.77
2022-12-16T01:12:47.649Z,-7.89
2022-12-16T01:15:12.501Z,-7.78
2022-12-16T01:17:35.165Z,-7.87
2022-12-16T01:19:56.623Z,-7.72
2022-12-16T01:22:18.224Z,-7.74
2022-12-16T01:24:39.805Z,-7.66
2022-12-16T01:27:01.395Z,-7.79
2022-12-16T01:29:22.900Z,-7.93
2022-12-16T01:31:44.634Z,-7.79
2022-12-16T01:34:06.157Z,-7.74
2022-12-16T01:36:27.661Z,-7.82
2022-12-16T01:38:49.560Z,-7.79
2022-12-16T01:41:14.085Z,-7.65
2022-12-16T01:43:37.921Z,-7.70
2022-12-16T01:46:06.936Z,-7.67
2022-12-16T01:48:43.605Z,-7.81
2022-12-16T01:51:15.739Z,-7.71
2022-12-16T01:53:40.062Z,-7.70
2022-12-16T01:56:02.768Z,-7.74
2022-12-16T01:58:30.626Z,-7.81
2022-12-16T02:00:52.565Z,-7.89
2022-12-16T02:03:16.595Z,-7.81
2022-12-16T02:05:43.386Z,-7.80
2022-12-16T02:08:13.874Z,-7.79
2022-12-16T02:10:40.615Z,-7.89
2022-12-16T02:13:21.728Z,-7.81
2022-12-16T02:15:54.357Z,-7.79
2022-12-16T02:18:53.264Z,-8.04
2022-12-16T02:21:40.902Z,-7.90
2022-12-16T02:24:02.583Z,-7.85
2022-12-16T02:26:33.658Z,-7.79
2022-12-16T02:29:16.561Z,-7.93
2022-12-16T02:31:55.117Z,-7.71
2022-12-16T02:34:30.188Z,-7.73
2022-12-16T02:37:36.627Z,-7.81
2022-12-16T02:40:28.287Z,-7.96
2022-12-16T02:42:56.900Z,-8.00
2022-12-16T02:45:24.282Z,-7.94
2022-12-16T02:47:46.515Z,-7.89
2022-12-16T02:50:21.232Z,-8.01
2022-12-16T02:52:42.854Z,-8.08
2022-12-16T02:55:09.070Z,-8.00
2022-12-16T02:58:02.949Z,-8.04
2022-12-16T03:00:25.472Z,-8.06
2022-12-16T03:03:12.294Z,-8.11
2022-12-16T03:05:48.139Z,-8.02
2022-12-16T03:08:14.624Z,-8.19
2022-12-16T03:10:43.439Z,-8.13
2022-12-16T03:13:07.401Z,-8.12
2022-12-16T03:15:33.054Z,-8.25
2022-12-16T03:17:56.638Z,-8.22
2022-12-16T03:20:34.793Z,-8.14
2022-12-16T03:23:01.448Z,-8.13
2022-12-16T03:25:23.345Z,-8.27
2022-12-16T03:27:51.216Z,-8.61
2022-12-16T03:30:44.704Z,-8.38
2022-12-16T03:33:19.131Z,-8.43
2022-12-16T03:35:48.722Z,-8.53
2022-12-16T03:38:12.367Z,-8.41
2022-12-16T03:40:35.980Z,-8.38
2022-12-16T03:42:58.159Z,-8.37
2022-12-16T03:45:25.247Z,-8.62
2022-12-16T03:47:53.760Z,-8.95
2022-12-16T03:50:15.704Z,-8.67
2022-12-16T03:52:37.274Z,-8.66
2022-12-16T03:54:58.752Z,-8.69
2022-12-16T03:57:20.205Z,-8.61
2022-12-16T03:59:41.679Z,-8.62
2022-12-16T04:02:03.347Z,-8.60
2022-12-16T04:04:25.063Z,-8.58
2022-12-16T04:07:06.528Z,-8.66
2022-12-16T04:09:28.003Z,-8.50
2022-12-16T04:12:08.192Z,-8.60
2022-12-16T04:14:53.282Z,-8.62
2022-12-16T04:17:33.759Z,-8.45
2022-12-16T04:20:13.791Z,-8.54
2022-12-16T04:22:58.563Z,-8.65
2022-12-16T04:25:28.930Z,-8.57
2022-12-16T04:27:50.476Z,-8.54
2022-12-16T04:30:21.902Z,-8.78
2022-12-16T04:33:02.058Z,-8.78
2022-12-16T04:35:42.384Z,-8.74
2022-12-16T04:38:22.666Z,-8.79
2022-12-16T04:41:02.392Z,-8.68
2022-12-16T04:43:42.700Z,-8.63
2022-12-16T04:46:23.245Z,-8.58
2022-12-16T04:49:03.462Z,-8.53
2022-12-16T04:51:43.600Z,-8.46
2022-12-16T04:54:23.648Z,-8.46
2022-12-16T04:57:03.606Z,-8.39
2022-12-16T04:59:47.964Z,-8.48
2022-12-16T05:02:28.021Z,-8.50
2022-12-16T05:05:08.366Z,-8.46
2022-12-16T05:07:48.179Z,-8.69
2022-12-16T05:10:28.375Z,-8.54
2022-12-16T05:13:08.204Z,-8.55
2022-12-16T05:15:48.718Z,-8.53
2022-12-16T05:18:34.365Z,-8.57
2022-12-16T05:21:19.713Z,-8.48
2022-12-16T05:23:59.501Z,-8.51
2022-12-16T05:26:39.668Z,-8.74
2022-12-16T05:29:19.633Z,-8.57
2022-12-16T05:31:59.809Z,-8.69
2022-12-16T05:34:39.985Z,-8.67
2022-12-16T05:37:19.981Z,-8.57
2022-12-16T05:39:59.827Z,-8.57
2022-12-16T05:42:40.118Z,-8.81
2022-12-16T05:45:19.982Z,-8.68
2022-12-16T05:47:59.892Z,-8.80
2022-12-16T05:50:40.235Z,-8.67
2022-12-16T05:53:20.354Z,-8.65
2022-12-16T05:56:01.825Z,-8.63
2022-12-16T05:58:42.244Z,-8.59
2022-12-16T06:01:22.581Z,-8.71
2022-12-16T06:04:02.578Z,-8.73
2022-12-16T06:06:42.446Z,-8.69
2022-12-16T06:09:23.341Z,-8.68
2022-12-16T06:12:03.381Z,-8.82
2022-12-16T06:14:43.613Z,-8.72
2022-12-16T06:17:23.700Z,-8.82
2022-12-16T06:20:03.727Z,-8.73
2022-12-16T06:22:43.699Z,-8.70
2022-12-16T06:25:24.120Z,-8.84
2022-12-16T06:28:09.720Z,-8.71
2022-12-16T06:30:49.830Z,-8.69
2022-12-16T06:33:29.882Z,-8.68
2022-12-16T06:36:10.262Z,-8.63
2022-12-16T06:38:50.072Z,-8.56
2022-12-16T06:41:30.260Z,-8.58
2022-12-16T06:44:10.048Z,-8.84
2022-12-16T06:46:50.170Z,-8.88
2022-12-16T06:49:30.289Z,-8.82
2022-12-16T06:52:10.137Z,-8.83
2022-12-16T06:54:49.961Z,-8.88
2022-12-16T06:57:29.690Z,-8.85
2022-12-16T07:00:09.660Z,-8.97
2022-12-16T07:02:49.835Z,-9.01
2022-12-16T07:05:30.041Z,-8.91
2022-12-16T07:08:10.567Z,-8.90
2022-12-16T07:10:51.621Z,-8.85
2022-12-16T07:13:35.258Z,-8.91
2022-12-16T07:16:15.579Z,-8.93
2022-12-16T07:18:55.901Z,-8.93
2022-12-16T07:21:36.015Z,-8.86
2022-12-16T07:24:16.204Z,-8.84
2022-12-16T07:26:56.166Z,-8.87
2022-12-16T07:29:36.206Z,-8.82
2022-12-16T07:32:16.201Z,-8.83
2022-12-16T07:34:55.921Z,-8.92
2022-12-16T07:37:36.344Z,-8.81
2022-12-16T07:40:16.177Z,-8.97
2022-12-16T07:42:56.399Z,-8.87
2022-12-16T07:45:41.698Z,-8.93
2022-12-16T07:48:25.266Z,-9.16
2022-12-16T07:51:05.282Z,-8.94
2022-12-16T07:53:45.658Z,-9.04
2022-12-16T07:56:26.339Z,-9.06
2022-12-16T07:59:06.277Z,-8.94
2022-12-16T08:01:46.418Z,-8.99
2022-12-16T08:04:26.588Z,-8.96
2022-12-16T08:07:06.389Z,-9.09
2022-12-16T08:09:46.571Z,-8.92
2022-12-16T08:12:26.664Z,-8.91
2022-12-16T08:15:06.475Z,-9.07
2022-12-16T08:17:46.805Z,-8.94
2022-12-16T08:20:27.327Z,-8.86
2022-12-16T08:23:07.511Z,-8.84
2022-12-16T08:25:47.304Z,-9.11
2022-12-16T08:28:27.172Z,-9.16
2022-12-16T08:31:10.685Z,-8.92
2022-12-16T08:33:50.903Z,-8.85
2022-12-16T08:36:30.909Z,-8.76
2022-12-16T08:39:11.222Z,-8.73
2022-12-16T08:41:51.375Z,-8.76
2022-12-16T08:44:31.200Z,-8.64
2022-12-16T08:47:11.569Z,-8.49
2022-12-16T08:49:52.615Z,-8.48
2022-12-16T08:52:34.953Z,-8.57
2022-12-16T08:55:15.077Z,-8.45
2022-12-16T08:57:55.075Z,-8.31
2022-12-16T09:00:36.615Z,-8.21
2022-12-16T09:03:17.617Z,-8.17
2022-12-16T09:05:58.219Z,-8.14
2022-12-16T09:08:38.046Z,-8.05
2022-12-16T09:11:21.160Z,-8.06
2022-12-16T09:14:01.318Z,-7.97
2022-12-16T09:16:41.521Z,-7.87
2022-12-16T09:19:21.615Z,-7.84
2022-12-16T09:22:01.732Z,-7.79
2022-12-16T09:24:42.009Z,-7.72
2022-12-16T09:27:41.917Z,-7.72
2022-12-16T09:30:22.635Z,-7.64
2022-12-16T09:33:03.555Z,-7.49
2022-12-16T09:35:43.728Z,-7.38
2022-12-16T09:38:23.519Z,-7.31
2022-12-16T09:41:03.587Z,-7.24
2022-12-16T09:44:06.313Z,-7.13
2022-12-16T09:46:52.734Z,-7.08
2022-12-16T09:50:09.942Z,-6.98
2022-12-16T09:52:56.010Z,-6.79
2022-12-16T09:55:44.127Z,-6.75
2022-12-16T09:58:24.982Z,-6.62
2022-12-16T10:01:05.589Z,-6.42
2022-12-16T10:03:56.353Z,-6.33
2022-12-16T10:06:55.924Z,-6.29
2022-12-16T10:10:04.185Z,-6.20
2022-12-16T10:12:55.547Z,-6.12
2022-12-16T10:15:44.888Z,-5.91
2022-12-16T10:18:36.707Z,-5.68
2022-12-16T10:21:17.164Z,-5.62
2022-12-16T10:24:11.874Z,-5.59
2022-12-16T10:27:26.638Z,-5.44
2022-12-16T10:30:06.621Z,-5.32
2022-12-16T10:32:59.003Z,-5.22
2022-12-16T10:35:49.774Z,-4.99
2022-12-16T10:38:57.629Z,-5.03
2022-12-16T10:41:39.379Z,-4.92
2022-12-16T10:44:23.868Z,-4.89
2022-12-16T10:47:04.129Z,-4.59
2022-12-16T10:49:43.995Z,-4.46
2022-12-16T10:52:24.846Z,-4.32
2022-12-16T10:55:16.432Z,-4.16
2022-12-16T10:58:04.620Z,-4.00
2022-12-16T11:01:03.642Z,-3.92
2022-12-16T11:03:47.131Z,-3.81
2022-12-16T11:06:29.328Z,-3.61
2022-12-16T11:09:09.556Z,-3.34
2022-12-16T11:11:50.187Z,-3.13
2022-12-16T11:15:05.581Z,-3.07
2022-12-16T11:17:47.188Z,-2.94
2022-12-16T11:20:37.940Z,-2.91
2022-12-16T11:23:39.641Z,-2.88
2022-12-16T11:26:37.981Z,-2.89
2022-12-16T11:29:30.924Z,-2.65
2022-12-16T11:32:22.309Z,-2.51
2022-12-16T11:35:08.011Z,-2.54
2022-12-16T11:37:50.975Z,-2.47
2022-12-16T11:40:37.150Z,-2.51
2022-12-16T11:43:19.528Z,-2.38
2022-12-16T11:46:00.732Z,-2.37
2022-12-16T11:49:03.365Z,-2.32
2022-12-16T11:51:46.834Z,-2.21
2022-12-16T11:54:36.119Z,-2.17
2022-12-16T11:57:19.811Z,-2.16
2022-12-16T12:00:07.275Z,-2.19
2022-12-16T12:02:55.845Z,-2.16
2022-12-16T12:05:40.945Z,-2.16
2022-12-16T12:08:34.040Z,-2.07
2022-12-16T12:11:27.239Z,-2.00
2022-12-16T12:14:10.087Z,-1.93
2022-12-16T12:17:02.185Z,-2.03
2022-12-16T12:19:56.173Z,-1.79
2022-12-16T12:22:56.970Z,-1.70
2022-12-16T12:25:41.274Z,-1.57
2022-12-16T12:28:33.496Z,-1.54
2022-12-16T12:31:50.092Z,-1.51
2022-12-16T12:34:48.187Z,-1.42
2022-12-16T12:37:37.612Z,-1.42
2022-12-16T12:40:59.233Z,-1.44
2022-12-16T12:43:51.478Z,-1.37
2022-12-16T12:46:51.588Z,-1.39
2022-12-16T12:49:52.813Z,-1.32
2022-12-16T12:53:00.870Z,-1.17
2022-12-16T12:56:01.180Z,-1.25
2022-12-16T12:58:42.429Z,-1.29
2022-12-16T13:01:25.932Z,-1.23
2022-12-16T13:04:09.405Z,-1.23
2022-12-16T13:06:50.560Z,-1.26
2022-12-16T13:10:00.548Z,-1.35
2022-12-16T13:12:43.122Z,-1.26
2022-12-16T13:15:27.956Z,-1.14
2022-12-16T13:18:20.236Z,-1.21
2022-12-16T13:21:00.635Z,-1.10
2022-12-16T13:23:54.672Z,-1.08
2022-12-16T13:26:36.512Z,-0.96
2022-12-16T13:29:45.784Z,-1.18
2022-12-16T13:32:25.840Z,-1.08
2022-12-16T13:35:18.475Z,-1.04
2022-12-16T13:37:58.342Z,-0.95
2022-12-16T13:40:42.329Z,-0.99
2022-12-16T13:43:23.963Z,-0.90
2022-12-16T13:46:19.675Z,-0.90
2022-12-16T13:49:00.914Z,-0.91
2022-12-16T13:51:56.509Z,-1.00
2022-12-16T13:54:36.742Z,-0.90
2022-12-16T13:57:20.633Z,-0.82
2022-12-16T14:00:02.115Z,-0.92
2022-12-16T14:02:50.520Z,-0.92
2022-12-16T14:05:53.740Z,-0.88
2022-12-16T14:08:37.092Z,-0.73
2022-12-16T14:11:21.203Z,-0.86
2022-12-16T14:14:27.007Z,-0.68
2022-12-16T14:17:17.541Z,-0.73
2022-12-16T14:20:00.489Z,-0.80
2022-12-16T14:22:59.882Z,-0.73
2022-12-16T14:25:41.764Z,-0.86
2022-12-16T14:28:45.477Z,-0.77
2022-12-16T14:31:34.666Z,-0.66
2022-12-16T14:34:14.846Z,-0.63
2022-12-16T14:36:58.001Z,-0.69
2022-12-16T14:39:50.038Z,-0.60
2022-12-16T14:42:41.292Z,-0.54
2022-12-16T14:45:21.711Z,-0.40
2022-12-16T14:48:01.590Z,-0.54
2022-12-16T14:50:47.718Z,-0.70
2022-12-16T14:53:42.151Z,-0.54
2022-12-16T14:56:49.095Z,-0.80
2022-12-16T14:59:33.000Z,-1.05
2022-12-16T15:02:15.909Z,-0.94
2022-12-16T15:04:56.632Z,-0.92
2022-12-16T15:07:37.080Z,-0.96
2022-12-16T15:10:19.635Z,-1.04
2022-12-16T15:13:03.057Z,-1.03
2022-12-16T15:15:51.381Z,-1.33
2022-12-16T15:18:38.101Z,-1.40
2022-12-16T15:21:18.225Z,-1.41
2022-12-16T15:24:01.565Z,-1.47
2022-12-16T15:26:44.711Z,-1.59
2022-12-16T15:29:58.566Z,-1.77
2022-12-16T15:32:51.011Z,-1.76
2022-12-16T15:35:53.098Z,-2.06
2022-12-16T15:38:39.292Z,-2.06
2022-12-16T15:41:21.344Z,-2.08
2022-12-16T15:44:04.515Z,-2.08
2022-12-16T15:46:48.843Z,-2.14
2022-12-16T15:49:47.385Z,-2.29
2022-12-16T15:52:49.770Z,-2.55
2022-12-16T15:55:57.055Z,-2.60
2022-12-16T15:58:41.725Z,-2.61
2022-12-16T16:01:22.112Z,-2.64
2022-12-16T16:04:08.709Z,-2.82
2022-12-16T16:06:49.720Z,-2.88
2022-12-16T16:09:41.252Z,-2.85
2022-12-16T16:12:21.601Z,-3.02
2022-12-16T16:15:01.617Z,-3.21
2022-12-16T16:17:42.208Z,-3.39
2022-12-16T16:20:22.933Z,-3.35
2022-12-16T16:23:02.750Z,-3.41
2022-12-16T16:25:43.498Z,-3.44
2022-12-16T16:28:25.284Z,-3.63
2022-12-16T16:31:05.576Z,-3.61
2022-12-16T16:33:53.006Z,-3.58
2022-12-16T16:36:34.131Z,-3.59
2022-12-16T16:39:14.353Z,-3.85
2022-12-16T16:41:54.609Z,-3.80
2022-12-16T16:44:34.503Z,-3.80
2022-12-16T16:47:15.758Z,-3.85
2022-12-16T16:50:01.568Z,-3.90
2022-12-16T16:52:43.733Z,-4.12
2022-12-16T16:55:25.319Z,-4.07
2022-12-16T16:58:05.867Z,-4.01
2022-12-16T17:00:46.182Z,-4.22
2022-12-16T17:03:26.351Z,-4.43
2022-12-16T17:06:06.739Z,-4.44
2022-12-16T17:08:46.694Z,-4.41
2022-12-16T17:11:37.835Z,-4.39
2022-12-16T17:14:17.609Z,-4.56
2022-12-16T17:16:58.546Z,-4.55
2022-12-16T17:19:38.374Z,-4.62
2022-12-16T17:22:18.288Z,-4.61
2022-12-16T17:24:58.493Z,-4.75
2022-12-16T17:27:41.619Z,-4.86
2022-12-16T17:30:23.156Z,-4.84
2022-12-16T17:33:03.327Z,-4.82
2022-12-16T17:35:43.167Z,-4.76
2022-12-16T17:38:23.001Z,-4.80
2022-12-16T17:41:10.361Z,-4.84
2022-12-16T17:43:50.432Z,-4.78
2022-12-16T17:46:30.784Z,-4.92
2022-12-16T17:49:12.515Z,-4.97
2022-12-16T17:51:52.744Z,-4.95
2022-12-16T17:54:33.196Z,-4.95
2022-12-16T17:57:13.373Z,-5.08
2022-12-16T17:59:54.826Z,-5.07
2022-12-16T18:02:35.224Z,-5.19
2022-12-16T18:05:15.268Z,-5.33
2022-12-16T18:07:55.499Z,-5.37
2022-12-16T18:10:35.338Z,-5.30
2022-12-16T18:13:15.577Z,-5.33
2022-12-16T18:15:55.997Z,-5.30
2022-12-16T18:18:36.057Z,-5.32
2022-12-16T18:21:16.076Z,-5.47
2022-12-16T18:23:56.205Z,-5.68
2022-12-16T18:26:36.799Z,-5.64
2022-12-16T18:29:16.636Z,-5.57
2022-12-16T18:31:56.922Z,-5.60
2022-12-16T18:34:37.179Z,-5.55
2022-12-16T18:37:17.310Z,-5.63
2022-12-16T18:39:57.520Z,-5.66
2022-12-16T18:42:37.429Z,-5.95
2022-12-16T18:45:17.375Z,-5.89
2022-12-16T18:47:57.358Z,-5.86
2022-12-16T18:50:38.204Z,-5.77
2022-12-16T18:53:18.173Z,-5.77
2022-12-16T18:55:58.352Z,-5.86
2022-12-16T18:58:53.589Z,-5.71
2022-12-16T19:01:33.495Z,-5.72
2022-12-16T19:04:15.198Z,-5.61
2022-12-16T19:06:55.927Z,-5.56
2022-12-16T19:09:35.895Z,-5.53
2022-12-16T19:12:26.385Z,-5.61
2022-12-16T19:15:06.392Z,-5.50
2022-12-16T19:17:46.352Z,-5.39
2022-12-16T19:20:32.878Z,-5.44
2022-12-16T19:23:13.313Z,-5.41
2022-12-16T19:25:53.506Z,-5.39
2022-12-16T19:28:35.457Z,-5.36
2022-12-16T19:31:15.917Z,-5.25
2022-12-16T19:33:56.164Z,-5.42
2022-12-16T19:36:36.165Z,-5.39
2022-12-16T19:39:16.077Z,-5.30
2022-12-16T19:41:56.355Z,-5.43
2022-12-16T19:44:36.253Z,-5.37
2022-12-16T19:47:16.223Z,-5.28
2022-12-16T19:49:56.344Z,-5.18
2022-12-16T19:52:36.333Z,-5.24
2022-12-16T19:55:17.698Z,-5.26
2022-12-16T19:57:57.855Z,-5.24
2022-12-16T20:00:37.922Z,-5.16
2022-12-16T20:03:17.845Z,-5.19
2022-12-16T20:05:57.661Z,-5.04
2022-12-16T20:08:37.762Z,-4.97
2022-12-16T20:11:23.531Z,-4.84
2022-12-16T20:14:03.346Z,-4.78
2022-12-16T20:16:43.543Z,-4.95
2022-12-16T20:19:23.820Z,-4.77
2022-12-16T20:22:06.896Z,-4.79
2022-12-16T20:24:48.660Z,-4.82
2022-12-16T20:27:29.422Z,-4.66
2022-12-16T20:30:09.956Z,-4.64
2022-12-16T20:32:49.908Z,-4.54
2022-12-16T20:35:29.902Z,-4.64
2022-12-16T20:38:11.842Z,-4.59
2022-12-16T20:40:51.516Z,-4.50
2022-12-16T20:43:31.997Z,-4.44
2022-12-16T20:46:15.317Z,-4.38
2022-12-16T20:48:56.463Z,-4.32
2022-12-16T20:51:36.684Z,-4.24
2022-12-16T20:54:16.487Z,-4.18
2022-12-16T20:56:56.565Z,-4.17
2022-12-16T20:59:36.483Z,-4.20
2022-12-16T21:02:26.832Z,-4.37
2022-12-16T21:05:10.599Z,-4.35
2022-12-16T21:07:51.080Z,-4.34
2022-12-16T21:10:31.543Z,-4.42
2022-12-16T21:13:11.387Z,-4.34
2022-12-16T21:15:51.151Z,-4.32
2022-12-16T21:18:33.497Z,-4.37
2022-12-16T21:21:14.110Z,-4.24
2022-12-16T21:23:54.081Z,-4.19
2022-12-16T21:26:36.304Z,-4.29
2022-12-16T21:29:16.500Z,-4.29
2022-12-16T21:31:56.623Z,-4.12
2022-12-16T21:34:36.755Z,-4.04
2022-12-16T21:37:16.892Z,-4.07
2022-12-16T21:39:56.992Z,-4.11
2022-12-16T21:42:39.765Z,-3.99
2022-12-16T21:45:23.991Z,-3.93
2022-12-16T21:48:03.896Z,-3.95
2022-12-16T21:50:44.177Z,-3.86
2022-12-16T21:53:24.504Z,-3.86
2022-12-16T21:56:13.565Z,-3.85
2022-12-16T21:58:53.388Z,-4.02
2022-12-16T22:01:34.848Z,-3.85
2022-12-16T22:04:14.958Z,-3.86
2022-12-16T22:06:55.179Z,-3.80
2022-12-16T22:09:36.490Z,-3.75
2022-12-16T22:12:16.670Z,-3.66
2022-12-16T22:14:56.689Z,-3.56
2022-12-16T22:17:36.906Z,-3.71
2022-12-16T22:20:17.051Z,-3.54
2022-12-16T22:22:56.871Z,-3.60
2022-12-16T22:25:36.979Z,-3.49
2022-12-16T22:28:16.837Z,-3.44
2022-12-16T22:30:57.152Z,-3.40
2022-12-16T22:33:37.320Z,-3.32
2022-12-16T22:36:25.349Z,-3.50
2022-12-16T22:39:05.767Z,-3.33
2022-12-16T22:41:45.895Z,-3.25
2022-12-16T22:44:26.898Z,-3.30
2022-12-16T22:47:07.027Z,-3.34
2022-12-16T22:49:47.155Z,-3.17
2022-12-16T22:52:27.480Z,-3.02
2022-12-16T22:55:07.363Z,-2.96
2022-12-16T22:57:51.092Z,-2.92
2022-12-16T23:00:34.048Z,-2.87
2022-12-16T23:03:16.003Z,-2.93
2022-12-16T23:06:06.539Z,-2.91
2022-12-16T23:08:46.799Z,-2.94
2022-12-16T23:11:37.483Z,-2.82
2022-12-16T23:14:17.395Z,-2.71
2022-12-16T23:16:57.689Z,-2.68
2022-12-16T23:19:37.852Z,-2.61
2022-12-16T23:22:17.933Z,-2.61
2022-12-16T23:24:58.088Z,-2.54
2022-12-16T23:27:48.911Z,-2.49
2022-12-16T23:30:29.583Z,-2.50
2022-12-16T23:33:21.466Z,-2.41
2022-12-16T23:36:01.539Z,-2.38
2022-12-16T23:38:41.413Z,-2.37
2022-12-16T23:41:21.528Z,-2.30
2022-12-16T23:44:02.633Z,-2.22
2022-12-16T23:46:42.845Z,-2.39
2022-12-16T23:49:22.978Z,-2.33
2022-12-16T23:52:02.757Z,-2.39
2022-12-16T23:54:42.779Z,-2.31
2022-12-16T23:57:23.088Z,-2.24
